Alcot, South Carolina
Current Conditions -  °F | °C
As of 9:35 AM on Tuesday 27 Jan 2015 (Local Time) from KHVS Reporting Station
Overcast Overcast  
Wind Chill: 32°   Ceiling: 10000
Heat Index: 37°   Visibility: 10mi
Dew Point: 19°   Wind: 7mph
Humidity: 48%   Direction: 340°NNW
Pressure: 29.86"   Gusts: NA
Location:  34.2324°N, 80.2824°W
Report Text: KHVS 271435Z AUTO 34006KT 10SM OVC100 03/M07 A2986 RMK AO2
Loading
Personal Weather Stations






























Interactive Weather Map New forecast layout! Learn more

10-Day Weather Forecast

Advertisements
Track Severe Weather on mobile